Badger Spring Valley, Nevada Weather observations

Data are for 10 minute period ending at time listed.
 Day   Time   Solar   Ave.   Ave.  Ave.  Vector  Max.   Baro.   Total    
  of    of     Rad.   Air    Rel.  Wind   Wind   Wind  Press.  Precip.   
Year   Day            Temp.  Hum.  Speed  Dir.   Gust                    
2017   (PST)  Kw/m2    F      %     mph   deg.    mph    mb.     in.     
-------------------------------------------------------------------------
  49   10:20   0.08   38.5    98   15.9   132    21.5   816.7    0.00 
  49   10:30   0.09   38.6    98   14.5   135    20.6   816.7    0.00 
  49   10:40   0.12   38.7    98   14.6   137    20.8   816.7    0.01 
  49   10:50   0.22   38.8    98   16.2   137    24.8   816.8    0.00 
  49   11:00   0.13   38.9    98   16.5   133    23.5   816.7    0.01 
  49   11:10   0.08   38.7    98   14.2   134    21.9   816.7    0.00 
  49   11:20   0.10   38.7    98   13.8   135    19.6   816.6    0.01 
  49   11:30   0.10   38.7    98   15.4   134    20.1   816.5    0.00 
  49   11:40   0.11   38.8    98   11.7   136    18.0   816.4    0.00 
  49   11:50   0.15   39.0    98   12.8   136    17.7   816.3    0.00 
  49   12:00   0.16   39.0    98   14.5   138    20.8   816.2    0.00 
  49   12:10   0.15   38.9    97   15.8   136    20.7   816.2    0.00 
  49   12:20   0.20   38.9    97   13.9   134    18.7   816.1    0.01 
  49   12:30   0.20   39.4    97   11.1   135    15.9   816.0    0.00 
  49   12:40   0.22   39.6    97   14.0   135    19.5   815.9    0.00 
  49   12:50   0.14   39.7    96   13.1   134    18.5   815.9    0.00 
  49   13:00   0.09   39.2    96   14.1   134    20.9   815.9    0.00 
  49   13:10   0.08   39.0    97   13.2   138    19.3   815.9    0.00 
  49   13:20   0.11   39.2    97   11.6   136    15.7   815.7    0.00 
  49   13:30   0.13   39.5    97   12.0   128    16.5   815.7    0.00 
  49   13:40   0.07   39.4    97   11.4   133    16.2   815.7    0.01 
  49   13:50   0.16   39.6    98   12.2   136    17.0   815.7    0.00 
  49   14:00   0.09   39.6    97   12.4   137    17.5   815.7    0.00 
  49   14:10   0.07   39.6    97    9.6   137    14.3   815.8    0.00 
  49   14:20   0.07   39.6    98   10.7   138    15.1   815.9    0.01 
  49   14:30   0.08   39.6    98   10.1   140    14.3   816.1    0.00 
  49   14:40   0.05   39.5    98    8.3   136    11.5   816.0    0.00 
  49   14:50   0.06   39.5    98    9.4   133    14.1   816.0    0.00 
  49   15:00   0.04   39.5    98    9.7   124    14.3   816.0    0.00 
  49   15:10   0.05   39.4    98    9.0   128    11.3   816.0    0.00 
  49   15:20   0.07   39.5    98    7.8   138    10.8   816.1    0.01 
  49   15:30   0.04   39.4    98    8.1   135    10.7   816.2    0.00 
  49   15:40   0.04   39.4    98    8.3   137    11.6   816.3    0.00 
  49   15:50   0.03   39.4    98    9.4   134    12.5   816.4    0.00 
  49   16:00   0.03   39.2    98   10.3   135    14.8   816.5    0.00 
  49   16:10   0.03   39.2    98   10.1   136    15.9   816.5    0.00 
  49   16:20   0.03   39.2    98   10.6   138    14.7   816.6    0.00 
  49   16:30   0.02   39.2    98   10.5   133    14.5   816.6    0.00 
  49   16:40   0.01   39.2    98   10.0   138    14.3   816.6    0.00 
  49   16:50   0.01   39.2    98   10.0   136    13.6   816.8    0.01 
  49   17:00   0.01   39.1    98   10.5   135    14.5   816.8    0.00 
  49   17:10   0.01   39.1    98    9.4   134    12.3   816.8    0.01 
  49   17:20   0.00   39.1    98    8.3   135    12.3   816.9    0.00 
  49   17:30   0.00   39.1    98    7.2   140    10.7   817.1    0.00 
  49   17:40   0.00   39.1    98    6.7   138    10.0   817.1    0.00 
  49   17:50   0.00   39.1    98    6.7   140     9.0   817.3    0.00 
  49   18:00   0.00   39.1    98    6.3   139     9.0   817.3    0.00 
  49   18:10   0.00   39.1    98    6.9   130    10.2   817.3    0.00 
  49   18:20   0.00   39.1    99    8.1   132    12.6   817.3    0.01 
  49   18:30   0.00   39.0    99    7.1   136     9.6   817.3    0.00 
  49   18:40   0.00   38.9    99    5.8   142     8.8   817.4    0.00 
  49   18:50   0.00   38.9    99    5.3   141     9.1   817.5    0.00 
  49   19:00   0.00   38.9    99    5.8   141     7.7   817.6    0.00 
  49   19:10   0.00   38.9    99    5.3   137     7.6   817.7    0.00 
  49   19:20   0.00   38.8    99    4.4   138     6.7   817.7    0.00 
  49   19:30   0.00   38.8    99    4.3   146     6.3   817.8    0.00 
  49   19:40   0.00   38.9    99    3.5   150     5.3   817.9    0.00 
  49   19:50   0.00   38.9    99    3.8   152     6.4   817.9    0.00 
  49   20:00   0.00   38.9    99    4.0   144     6.4   817.9    0.00 
  49   20:10   0.00   39.0    99    5.1   143     7.5   818.0    0.00 
  49   20:20   0.00   38.9    99    5.7   137     8.6   818.1    0.00 
  49   20:30   0.00   38.8    99    3.9   147     5.5   818.1    0.00 
  49   20:40   0.00   38.7    99    1.2   149     2.7   818.1    0.00 
  49   20:50   0.00   38.7    99    2.7   202     4.5   818.3    0.00 
  49   21:00   0.00   38.7    99    2.1   205     3.6   818.3    0.00 
  49   21:10   0.00   38.7    99    1.8   185     3.4   818.4    0.00 
  49   21:20   0.00   38.6    99    1.2   171     2.9   818.4    0.01 
  49   21:30   0.00   38.6    99    1.2   167     2.1   818.5    0.00 
  49   21:40   0.00   38.6    99    1.0   149     2.2   818.5    0.00 
  49   21:50   0.00   38.5    99    0.6   168     1.7   818.5    0.00 
  49   22:00   0.00   38.4    99    2.6   133     5.6   818.6    0.00 
  49   22:10   0.00   38.4    99    1.2   173     3.1   818.6    0.00 
  49   22:20   0.00   38.4    99    2.4   243     5.0   818.5    0.00 
  49   22:30   0.00   38.4    99    2.8   200     6.4   818.5    0.00 
  49   22:40   0.00   38.3    98    1.6   141     4.1   818.5    0.00 
  49   22:50   0.00   38.1    98    4.6   130     8.8   818.4    0.00 
  49   23:00   0.00   38.1    98    2.9   194     4.5   818.5    0.00 
  49   23:10   0.00   38.1    98    3.6   227     5.5   818.7    0.00 
  49   23:20   0.00   38.3    98    3.8   208     6.4   818.7    0.00 
  49   23:30   0.00   38.4    98    4.5   198     7.2   818.8    0.00 
  49   23:40   0.00   38.3    98    4.2   170     9.3   818.8    0.00 
  49   23:50   0.00   38.3    98    4.3   170     6.5   818.8    0.00 
  50    0:00   0.00   38.2    98    4.9   171     7.0   818.8    0.00 
  50    0:10   0.00   38.2    98    4.3   190     6.6   818.9    0.00 
  50    0:20   0.00   38.3    98    4.3   207     6.6   819.0    0.00 
  50    0:30   0.00   38.3    98    4.8   232     6.8   819.0    0.00 
  50    0:40   0.00   38.3    98    4.5   270     8.3   819.0    0.00 
  50    0:50   0.00   38.4    98    4.5   259     7.5   819.0    0.00 
  50    1:00   0.00   38.6    98    2.5   157     6.9   819.1    0.00 
  50    1:10   0.00   38.4    98    1.2   139     3.8   819.1    0.00 
  50    1:20   0.00   38.4    98    1.2   119     2.2   819.1    0.00 
  50    1:30   0.00   38.4    98    1.3   144     2.8   819.1    0.00 
  50    1:40   0.00   38.4    98    2.4   168     3.8   819.1    0.00 
  50    1:50   0.00   38.4    98    2.2   160     3.2   819.1    0.00 
  50    2:00   0.00   38.4    98    2.7   145     4.4   819.1    0.01 
  50    2:10   0.00   38.6    98    3.2   162     5.0   819.1    0.00 
  50    2:20   0.00   38.7    98    4.4   191     9.6   819.2    0.00 
  50    2:30   0.00   38.9    98    6.2   185    10.7   819.1    0.00 
  50    2:40   0.00   38.9    98    7.6   188    12.5   819.1    0.00 
  50    2:50   0.00   38.9    98    9.6   190    13.6   819.0    0.00 
  50    3:00   0.00   38.9    98    8.0   199    12.0   819.1    0.00 
  50    3:10   0.00   38.9    97    8.4   198    11.6   819.1    0.00 
  50    3:20   0.00   38.8    97    7.4   196    11.4   819.1    0.00 
  50    3:30   0.00   38.9    97    7.1   201    10.4   819.1    0.00 
  50    3:40   0.00   38.9    97    6.6   193    10.0   819.1    0.00 
  50    3:50   0.00   38.9    97    6.7   199    11.0   819.1    0.00 
  50    4:00   0.00   38.9    98    6.2   188    10.0   819.3    0.00 
  50    4:10   0.00   38.8    98    6.4   200    10.0   819.3    0.00 
  50    4:20   0.00   38.8    98    7.3   208    10.3   819.4    0.00 
  50    4:30   0.00   38.8    98    6.2   204     8.8   819.5    0.01 
  50    4:40   0.00   38.9    97    5.9   200     9.6   819.5    0.00 
  50    4:50   0.00   38.9    97    6.3   202    10.2   819.6    0.00 
  50    5:00   0.00   38.9    97    5.9   196     9.3   819.6    0.00 
  50    5:10   0.00   38.9    97    5.6   190     8.1   819.6    0.00 
  50    5:20   0.00   38.8    97    5.2   188     7.3   819.7    0.00 
  50    5:30   0.00   38.7    97    4.5   189     6.4   819.8    0.00 
  50    5:40   0.00   38.7    97    2.9   179     5.8   819.8    0.00 
  50    5:50   0.00   38.6    98    3.5   167     4.6   820.1    0.00 
  50    6:00   0.00   38.5    98    2.4   172     4.1   820.1    0.00 
  50    6:10   0.00   38.4    98    2.4   165     4.7   820.2    0.00 
  50    6:20   0.00   38.5    98    3.9   180     7.7   820.3    0.00 
  50    6:30   0.00   38.5    98    5.5   196     8.9   820.4    0.02 
  50    6:40   0.00   38.4    98    5.5   170     8.5   820.5    0.02 
  50    6:50   0.00   38.4    98    4.8   184     8.1   820.6    0.01 
  50    7:00   0.01   38.7    98    4.4   208     8.3   820.8    0.00 
  50    7:10   0.04   38.8    98    4.8   226     7.3   820.9    0.00 
  50    7:20   0.08   39.1    97    4.2   242     7.1   821.1    0.01 
  50    7:30   0.05   39.1    95    5.0   231     8.0   821.1    0.01 
  50    7:40   0.08   39.0    94    5.0   224     7.6   821.3    0.01 
  50    7:50   0.09   39.1    94    5.1   221     8.1   821.5    0.00 
  50    8:00   0.11   39.5    95    4.5   230     8.7   821.6    0.01 
  50    8:10   0.13   39.5    93    5.7   226     8.0   821.7    0.00 
  50    8:20   0.15   39.9    92    3.8   224     6.6   821.9    0.00 
  50    8:30   0.18   40.3    94    3.4   207     6.5   821.9    0.00 
  50    8:40   0.12   40.5    92    4.8   239     7.9   822.0    0.00 
  50    8:50   0.22   41.0    91    2.3   198     5.2   822.1    0.00 
  50    9:00   0.25   42.2    89    4.1   271     9.4   822.1    0.00 
  50    9:10   0.16   41.6    89    5.8   267    11.1   822.2    0.00 
  50    9:20   0.32   41.0    91    8.4   250    13.8   822.2    0.00 
  50    9:30   0.48   42.3    89    8.2   244    12.6   822.3    0.00 
  50    9:40   0.55   42.4    87    9.5   246    15.9   822.4    0.00 
  50    9:50   0.57   42.3    86   11.6   248    16.7   822.5    0.00 
  50   10:00   0.69   42.8    85   12.3   251    16.6   822.6    0.00 
  50   10:10   0.72   43.4    82   11.5   244    16.0   822.8    0.00 

Return to Badger Spring Valley graphs page.


Western Regional Climate Center,wrcc@dri.edu